sensor_id;sensor_type;location;lat;lon;timestamp;pressure;altitude;pressure_sealevel;temperature;humidity
26083;BME280;13848;49.018;12.078;2022-07-29T00:00:46;97563.44;;;22.98;42.64
26083;BME280;13848;49.018;12.078;2022-07-29T00:03:12;97565.84;;;22.86;43.36
26083;BME280;13848;49.018;12.078;2022-07-29T00:05:40;97557.94;;;22.98;42.34
26083;BME280;13848;49.018;12.078;2022-07-29T00:08:06;97555.44;;;22.83;42.98
26083;BME280;13848;49.018;12.078;2022-07-29T00:10:33;97554.94;;;22.81;43.16
26083;BME280;13848;49.018;12.078;2022-07-29T00:12:59;97554.78;;;22.91;43.12
26083;BME280;13848;49.018;12.078;2022-07-29T00:15:25;97553.84;;;22.96;42.47
26083;BME280;13848;49.018;12.078;2022-07-29T00:17:51;97553.22;;;22.85;42.82
26083;BME280;13848;49.018;12.078;2022-07-29T00:20:17;97555.66;;;22.87;42.62
26083;BME280;13848;49.018;12.078;2022-07-29T00:22:44;97553.13;;;22.90;42.86
26083;BME280;13848;49.018;12.078;2022-07-29T00:25:12;97544.88;;;22.90;43.05
26083;BME280;13848;49.018;12.078;2022-07-29T00:27:38;97546.31;;;22.88;43.25
26083;BME280;13848;49.018;12.078;2022-07-29T00:30:06;97549.13;;;22.82;42.80
26083;BME280;13848;49.018;12.078;2022-07-29T00:32:32;97537.63;;;22.80;42.79
26083;BME280;13848;49.018;12.078;2022-07-29T00:34:58;97550.38;;;22.90;42.85
26083;BME280;13848;49.018;12.078;2022-07-29T00:37:24;97555.66;;;22.87;43.02
26083;BME280;13848;49.018;12.078;2022-07-29T00:39:52;97552.69;;;22.83;43.22
26083;BME280;13848;49.018;12.078;2022-07-29T00:42:18;97542.59;;;22.78;43.46
26083;BME280;13848;49.018;12.078;2022-07-29T00:44:44;97536.91;;;22.75;43.25
26083;BME280;13848;49.018;12.078;2022-07-29T00:47:11;97533.84;;;22.63;43.53
26083;BME280;13848;49.018;12.078;2022-07-29T00:49:38;97540.88;;;22.69;43.67
26083;BME280;13848;49.018;12.078;2022-07-29T00:52:05;97542.41;;;22.75;43.76
26083;BME280;13848;49.018;12.078;2022-07-29T00:54:31;97543.63;;;22.69;43.49
26083;BME280;13848;49.018;12.078;2022-07-29T00:57:00;97545.34;;;22.65;43.94
26083;BME280;13848;49.018;12.078;2022-07-29T00:59:26;97544.84;;;22.63;44.45
26083;BME280;13848;49.018;12.078;2022-07-29T01:01:52;97534.44;;;22.60;45.12
26083;BME280;13848;49.018;12.078;2022-07-29T01:04:18;97529.56;;;22.56;44.92
26083;BME280;13848;49.018;12.078;2022-07-29T01:06:45;97532.50;;;22.46;44.84
26083;BME280;13848;49.018;12.078;2022-07-29T01:09:12;97531.47;;;22.42;44.86
26083;BME280;13848;49.018;12.078;2022-07-29T01:11:39;97525.47;;;22.40;45.05
26083;BME280;13848;49.018;12.078;2022-07-29T01:14:08;97525.47;;;22.40;45.85
26083;BME280;13848;49.018;12.078;2022-07-29T01:16:37;97529.50;;;22.29;45.63
26083;BME280;13848;49.018;12.078;2022-07-29T01:19:13;97522.97;;;22.25;46.25
26083;BME280;13848;49.018;12.078;2022-07-29T01:21:50;97518.31;;;22.25;46.35
26083;BME280;13848;49.018;12.078;2022-07-29T01:24:39;97512.81;;;22.25;46.11
26083;BME280;13848;49.018;12.078;2022-07-29T01:27:26;97515.44;;;22.17;46.60
26083;BME280;13848;49.018;12.078;2022-07-29T01:30:01;97512.16;;;22.15;46.76
26083;BME280;13848;49.018;12.078;2022-07-29T01:32:29;97510.09;;;22.07;46.81
26083;BME280;13848;49.018;12.078;2022-07-29T01:35:02;97504.66;;;22.20;46.88
26083;BME280;13848;49.018;12.078;2022-07-29T01:37:33;97504.59;;;22.07;47.02
26083;BME280;13848;49.018;12.078;2022-07-29T01:40:05;97498.00;;;22.08;47.27
26083;BME280;13848;49.018;12.078;2022-07-29T01:42:38;97494.41;;;21.93;47.53
26083;BME280;13848;49.018;12.078;2022-07-29T01:45:10;97491.44;;;21.90;47.45
26083;BME280;13848;49.018;12.078;2022-07-29T01:47:41;97487.28;;;21.92;47.97
26083;BME280;13848;49.018;12.078;2022-07-29T01:50:12;97479.31;;;21.91;48.04
26083;BME280;13848;49.018;12.078;2022-07-29T01:52:46;97476.47;;;21.82;48.13
26083;BME280;13848;49.018;12.078;2022-07-29T01:55:16;97470.81;;;21.92;48.34
26083;BME280;13848;49.018;12.078;2022-07-29T01:57:46;97468.53;;;21.81;47.74
26083;BME280;13848;49.018;12.078;2022-07-29T02:00:15;97464.69;;;21.95;46.94
26083;BME280;13848;49.018;12.078;2022-07-29T02:02:43;97471.47;;;21.84;46.79
26083;BME280;13848;49.018;12.078;2022-07-29T02:05:12;97471.31;;;21.94;46.31
26083;BME280;13848;49.018;12.078;2022-07-29T02:07:40;97476.19;;;21.97;45.95
26083;BME280;13848;49.018;12.078;2022-07-29T02:10:09;97477.13;;;22.07;45.51
26083;BME280;13848;49.018;12.078;2022-07-29T02:12:36;97470.19;;;21.95;45.69
26083;BME280;13848;49.018;12.078;2022-07-29T02:15:05;97473.03;;;21.90;45.93
26083;BME280;13848;49.018;12.078;2022-07-29T02:17:39;97474.13;;;21.89;46.17
26083;BME280;13848;49.018;12.078;2022-07-29T02:20:08;97478.59;;;21.85;45.68
26083;BME280;13848;49.018;12.078;2022-07-29T02:22:37;97476.47;;;21.82;46.25
26083;BME280;13848;49.018;12.078;2022-07-29T02:25:05;97472.97;;;21.76;46.28
26083;BME280;13848;49.018;12.078;2022-07-29T02:27:33;97472.09;;;21.81;46.06
26083;BME280;13848;49.018;12.078;2022-07-29T02:30:01;97465.53;;;21.63;46.49
26083;BME280;13848;49.018;12.078;2022-07-29T02:32:29;97471.28;;;21.62;46.53
26083;BME280;13848;49.018;12.078;2022-07-29T02:34:58;97481.53;;;21.75;46.42
26083;BME280;13848;49.018;12.078;2022-07-29T02:37:26;97490.28;;;21.58;47.04
26083;BME280;13848;49.018;12.078;2022-07-29T02:39:55;97485.53;;;21.64;46.59
26083;BME280;13848;49.018;12.078;2022-07-29T02:42:22;97488.38;;;21.59;46.71
26083;BME280;13848;49.018;12.078;2022-07-29T02:44:50;97489.25;;;21.35;47.35
26083;BME280;13848;49.018;12.078;2022-07-29T02:47:19;97476.50;;;21.44;47.23
26083;BME280;13848;49.018;12.078;2022-07-29T02:49:51;97476.50;;;21.44;47.45
26083;BME280;13848;49.018;12.078;2022-07-29T02:52:24;97477.75;;;21.52;47.10
26083;BME280;13848;49.018;12.078;2022-07-29T02:54:55;97484.66;;;21.49;47.76
26083;BME280;13848;49.018;12.078;2022-07-29T02:57:26;97487.94;;;21.51;47.46
26083;BME280;13848;49.018;12.078;2022-07-29T02:59:57;97496.06;;;21.57;47.23
26083;BME280;13848;49.018;12.078;2022-07-29T03:02:25;97475.16;;;21.61;46.96
26083;BME280;13848;49.018;12.078;2022-07-29T03:04:53;97482.44;;;21.51;47.53
26083;BME280;13848;49.018;12.078;2022-07-29T03:07:23;97485.31;;;21.41;47.66
26083;BME280;13848;49.018;12.078;2022-07-29T03:09:49;97479.22;;;21.44;47.64
26083;BME280;13848;49.018;12.078;2022-07-29T03:12:17;97478.72;;;21.42;47.60
26083;BME280;13848;49.018;12.078;2022-07-29T03:14:44;97481.81;;;21.55;47.19
26083;BME280;13848;49.018;12.078;2022-07-29T03:17:10;97481.78;;;21.41;47.44
26083;BME280;13848;49.018;12.078;2022-07-29T03:19:37;97487.03;;;21.37;47.92
26083;BME280;13848;49.018;12.078;2022-07-29T03:22:03;97489.69;;;21.42;47.63
26083;BME280;13848;49.018;12.078;2022-07-29T03:24:34;97491.94;;;21.40;47.84
26083;BME280;13848;49.018;12.078;2022-07-29T03:27:01;97490.28;;;21.39;47.66
26083;BME280;13848;49.018;12.078;2022-07-29T03:29:27;97483.16;;;21.38;48.13
26083;BME280;13848;49.018;12.078;2022-07-29T03:31:53;97481.66;;;21.27;48.09
26083;BME280;13848;49.018;12.078;2022-07-29T03:34:20;97479.69;;;21.51;47.47
26083;BME280;13848;49.018;12.078;2022-07-29T03:36:46;97482.66;;;21.36;47.85
26083;BME280;13848;49.018;12.078;2022-07-29T03:39:16;97475.81;;;21.34;47.60
26083;BME280;13848;49.018;12.078;2022-07-29T03:41:45;97472.44;;;21.42;47.47
26083;BME280;13848;49.018;12.078;2022-07-29T03:44:13;97470.19;;;21.44;47.36
26083;BME280;13848;49.018;12.078;2022-07-29T03:46:43;97483.78;;;21.35;47.66
26083;BME280;13848;49.018;12.078;2022-07-29T03:49:09;97489.13;;;21.45;47.39
26083;BME280;13848;49.018;12.078;2022-07-29T03:51:36;97497.56;;;21.30;47.49
26083;BME280;13848;49.018;12.078;2022-07-29T03:54:04;97494.28;;;21.28;47.75
26083;BME280;13848;49.018;12.078;2022-07-29T03:56:32;97493.53;;;21.22;48.05
26083;BME280;13848;49.018;12.078;2022-07-29T03:59:02;97499.28;;;21.21;48.51
26083;BME280;13848;49.018;12.078;2022-07-29T04:01:28;97501.13;;;21.07;48.68
26083;BME280;13848;49.018;12.078;2022-07-29T04:03:55;97504.31;;;21.14;48.47
26083;BME280;13848;49.018;12.078;2022-07-29T04:06:21;97507.13;;;21.09;48.40
26083;BME280;13848;49.018;12.078;2022-07-29T04:08:47;97512.47;;;21.19;48.00
26083;BME280;13848;49.018;12.078;2022-07-29T04:11:13;97523.91;;;21.26;47.55
26083;BME280;13848;49.018;12.078;2022-07-29T04:13:39;97524.84;;;21.40;47.16
26083;BME280;13848;49.018;12.078;2022-07-29T04:16:06;97520.38;;;21.44;47.30
26083;BME280;13848;49.018;12.078;2022-07-29T04:18:32;97526.16;;;21.62;47.53
26083;BME280;13848;49.018;12.078;2022-07-29T04:20:58;97531.44;;;21.58;47.98
26083;BME280;13848;49.018;12.078;2022-07-29T04:23:24;97530.56;;;21.63;47.95
26083;BME280;13848;49.018;12.078;2022-07-29T04:25:50;97532.47;;;21.43;48.87
26083;BME280;13848;49.018;12.078;2022-07-29T04:28:16;97538.91;;;21.34;48.77
26083;BME280;13848;49.018;12.078;2022-07-29T04:30:42;97538.72;;;21.25;49.16
26083;BME280;13848;49.018;12.078;2022-07-29T04:33:10;97529.97;;;21.23;49.15
26083;BME280;13848;49.018;12.078;2022-07-29T04:35:36;97534.53;;;21.33;49.01
26083;BME280;13848;49.018;12.078;2022-07-29T04:38:04;97537.59;;;21.26;49.02
26083;BME280;13848;49.018;12.078;2022-07-29T04:40:30;97531.00;;;21.27;49.47
26083;BME280;13848;49.018;12.078;2022-07-29T04:42:56;97538.72;;;21.25;49.14
26083;BME280;13848;49.018;12.078;2022-07-29T04:45:22;97543.16;;;21.21;49.15
26083;BME280;13848;49.018;12.078;2022-07-29T04:47:48;97541.81;;;21.18;49.75
26083;BME280;13848;49.018;12.078;2022-07-29T04:50:16;97542.13;;;21.17;49.40
26083;BME280;13848;49.018;12.078;2022-07-29T04:52:42;97538.63;;;21.35;48.60
26083;BME280;13848;49.018;12.078;2022-07-29T04:55:09;97541.38;;;21.11;49.36
26083;BME280;13848;49.018;12.078;2022-07-29T04:57:35;97539.50;;;21.07;49.09
26083;BME280;13848;49.018;12.078;2022-07-29T05:00:01;97547.13;;;21.10;48.95
26083;BME280;13848;49.018;12.078;2022-07-29T05:02:27;97536.78;;;21.07;49.24
26083;BME280;13848;49.018;12.078;2022-07-29T05:04:53;97548.69;;;21.16;48.90
26083;BME280;13848;49.018;12.078;2022-07-29T05:07:20;97540.63;;;21.06;48.62
26083;BME280;13848;49.018;12.078;2022-07-29T05:09:46;97540.63;;;21.06;48.78
26083;BME280;13848;49.018;12.078;2022-07-29T05:12:12;97545.16;;;21.15;48.82
26083;BME280;13848;49.018;12.078;2022-07-29T05:14:38;97550.94;;;21.14;48.35
26083;BME280;13848;49.018;12.078;2022-07-29T05:17:04;97547.38;;;21.13;48.22
26083;BME280;13848;49.018;12.078;2022-07-29T05:19:30;97543.44;;;21.01;48.82
26083;BME280;13848;49.018;12.078;2022-07-29T05:21:56;97544.94;;;21.12;48.50
26083;BME280;13848;49.018;12.078;2022-07-29T05:24:23;97550.63;;;21.15;48.47
26083;BME280;13848;49.018;12.078;2022-07-29T05:26:49;97556.13;;;21.15;48.79
26083;BME280;13848;49.018;12.078;2022-07-29T05:29:15;97553.66;;;21.14;48.96
26083;BME280;13848;49.018;12.078;2022-07-29T05:31:41;97549.25;;;21.18;48.64
26083;BME280;13848;49.018;12.078;2022-07-29T05:34:07;97544.75;;;21.03;49.07
26083;BME280;13848;49.018;12.078;2022-07-29T05:36:33;97548.19;;;21.14;48.82
26083;BME280;13848;49.018;12.078;2022-07-29T05:38:59;97545.09;;;21.20;48.21
26083;BME280;13848;49.018;12.078;2022-07-29T05:41:27;97556.13;;;21.15;48.38
26083;BME280;13848;49.018;12.078;2022-07-29T05:43:52;97562.91;;;21.23;48.54
26083;BME280;13848;49.018;12.078;2022-07-29T05:46:18;97559.75;;;21.11;48.83
26083;BME280;13848;49.018;12.078;2022-07-29T05:48:44;97561.84;;;21.19;48.56
26083;BME280;13848;49.018;12.078;2022-07-29T05:51:10;97562.94;;;21.18;48.75
26083;BME280;13848;49.018;12.078;2022-07-29T05:53:36;97556.88;;;21.21;48.66
26083;BME280;13848;49.018;12.078;2022-07-29T05:56:03;97559.25;;;21.27;47.79
26083;BME280;13848;49.018;12.078;2022-07-29T05:58:30;97556.25;;;21.29;47.52
26083;BME280;13848;49.018;12.078;2022-07-29T06:00:56;97560.78;;;21.15;47.66
26083;BME280;13848;49.018;12.078;2022-07-29T06:03:22;97556.00;;;21.25;47.93
26083;BME280;13848;49.018;12.078;2022-07-29T06:05:48;97559.03;;;21.24;47.55
26083;BME280;13848;49.018;12.078;2022-07-29T06:08:14;97549.00;;;21.38;47.04
26083;BME280;13848;49.018;12.078;2022-07-29T06:10:41;97548.84;;;21.48;46.76
26083;BME280;13848;49.018;12.078;2022-07-29T06:13:07;97550.66;;;21.77;46.45
26083;BME280;13848;49.018;12.078;2022-07-29T06:15:34;97552.88;;;21.75;45.98
26083;BME280;13848;49.018;12.078;2022-07-29T06:18:00;97556.13;;;21.77;45.86
26083;BME280;13848;49.018;12.078;2022-07-29T06:20:26;97553.91;;;21.79;46.09
26083;BME280;13848;49.018;12.078;2022-07-29T06:22:52;97551.75;;;21.76;46.21
26083;BME280;13848;49.018;12.078;2022-07-29T06:25:18;97558.81;;;21.82;46.44
26083;BME280;13848;49.018;12.078;2022-07-29T06:27:44;97558.28;;;21.99;45.94
26083;BME280;13848;49.018;12.078;2022-07-29T06:30:11;97559.16;;;21.94;45.75
26083;BME280;13848;49.018;12.078;2022-07-29T06:32:39;97550.25;;;21.84;46.50
26083;BME280;13848;49.018;12.078;2022-07-29T06:35:06;97558.19;;;21.85;47.11
26083;BME280;13848;49.018;12.078;2022-07-29T06:37:32;97563.34;;;21.92;46.69
26083;BME280;13848;49.018;12.078;2022-07-29T06:39:58;97555.16;;;22.05;46.24
26083;BME280;13848;49.018;12.078;2022-07-29T06:42:24;97560.59;;;22.11;46.09
26083;BME280;13848;49.018;12.078;2022-07-29T06:44:50;97560.59;;;22.11;45.81
26083;BME280;13848;49.018;12.078;2022-07-29T06:47:16;97556.72;;;22.12;45.72
26083;BME280;13848;49.018;12.078;2022-07-29T06:49:43;97573.03;;;22.22;45.08
26083;BME280;13848;49.018;12.078;2022-07-29T06:52:09;97576.31;;;22.38;44.71
26083;BME280;13848;49.018;12.078;2022-07-29T06:54:35;97576.38;;;22.51;44.08
26083;BME280;13848;49.018;12.078;2022-07-29T06:57:01;97589.63;;;22.30;44.68
26083;BME280;13848;49.018;12.078;2022-07-29T06:59:27;97593.44;;;22.35;44.90
26083;BME280;13848;49.018;12.078;2022-07-29T07:01:53;97589.31;;;22.32;45.19
26083;BME280;13848;49.018;12.078;2022-07-29T07:04:19;97591.81;;;22.34;45.73
26083;BME280;13848;49.018;12.078;2022-07-29T07:06:46;97594.66;;;22.42;45.03
26083;BME280;13848;49.018;12.078;2022-07-29T07:09:12;97586.66;;;22.60;44.51
26083;BME280;13848;49.018;12.078;2022-07-29T07:11:38;97591.09;;;22.74;44.09
26083;BME280;13848;49.018;12.078;2022-07-29T07:14:04;97587.25;;;22.89;43.85
26083;BME280;13848;49.018;12.078;2022-07-29T07:16:30;97583.81;;;23.11;44.30
26083;BME280;13848;49.018;12.078;2022-07-29T07:18:56;97583.78;;;23.25;43.79
26083;BME280;13848;49.018;12.078;2022-07-29T07:21:22;97592.38;;;23.37;43.88
26083;BME280;13848;49.018;12.078;2022-07-29T07:23:49;97592.78;;;23.44;43.67
26083;BME280;13848;49.018;12.078;2022-07-29T07:26:15;97588.03;;;23.58;43.32
26083;BME280;13848;49.018;12.078;2022-07-29T07:28:41;97600.09;;;23.62;43.75
26083;BME280;13848;49.018;12.078;2022-07-29T07:31:07;97590.78;;;23.86;43.14
26083;BME280;13848;49.018;12.078;2022-07-29T07:33:33;97593.31;;;23.96;42.09
26083;BME280;13848;49.018;12.078;2022-07-29T07:35:59;97586.13;;;24.09;42.55
26083;BME280;13848;49.018;12.078;2022-07-29T07:38:25;97580.16;;;24.15;42.04
26083;BME280;13848;49.018;12.078;2022-07-29T07:40:53;97584.38;;;24.13;41.70
26083;BME280;13848;49.018;12.078;2022-07-29T07:43:19;97574.28;;;24.31;42.09
26083;BME280;13848;49.018;12.078;2022-07-29T07:45:45;97573.56;;;24.39;42.35
26083;BME280;13848;49.018;12.078;2022-07-29T07:48:11;97557.81;;;24.62;42.13
26083;BME280;13848;49.018;12.078;2022-07-29T07:50:37;97570.78;;;24.61;42.07
26083;BME280;13848;49.018;12.078;2022-07-29T07:53:03;97567.16;;;24.83;41.68
26083;BME280;13848;49.018;12.078;2022-07-29T07:55:29;97574.84;;;24.95;42.08
26083;BME280;13848;49.018;12.078;2022-07-29T07:57:56;97571.66;;;25.10;41.71
26083;BME280;13848;49.018;12.078;2022-07-29T08:00:23;97566.53;;;25.17;41.40
26083;BME280;13848;49.018;12.078;2022-07-29T08:02:49;97572.38;;;25.25;41.15
26083;BME280;13848;49.018;12.078;2022-07-29T08:05:15;97575.34;;;25.37;41.09
26083;BME280;13848;49.018;12.078;2022-07-29T08:07:41;97578.28;;;25.49;40.74
26083;BME280;13848;49.018;12.078;2022-07-29T08:10:08;97568.09;;;25.58;40.73
26083;BME280;13848;49.018;12.078;2022-07-29T08:12:34;97571.19;;;25.65;40.65
26083;BME280;13848;49.018;12.078;2022-07-29T08:15:01;97579.63;;;25.60;40.10
26083;BME280;13848;49.018;12.078;2022-07-29T08:17:27;97578.94;;;25.55;40.35
26083;BME280;13848;49.018;12.078;2022-07-29T08:19:53;97581.56;;;25.68;40.54
26083;BME280;13848;49.018;12.078;2022-07-29T08:22:19;97570.41;;;25.91;40.46
26083;BME280;13848;49.018;12.078;2022-07-29T08:24:45;97568.00;;;25.98;40.42
26083;BME280;13848;49.018;12.078;2022-07-29T08:27:12;97576.91;;;25.95;40.59
26083;BME280;13848;49.018;12.078;2022-07-29T08:29:39;97563.28;;;26.16;40.34
26083;BME280;13848;49.018;12.078;2022-07-29T08:32:06;97573.84;;;26.22;39.97
26083;BME280;13848;49.018;12.078;2022-07-29T08:34:33;97580.97;;;26.23;40.01
26083;BME280;13848;49.018;12.078;2022-07-29T08:36:59;97553.53;;;26.10;39.54
26083;BME280;13848;49.018;12.078;2022-07-29T08:39:25;97580.31;;;26.26;40.15
26083;BME280;13848;49.018;12.078;2022-07-29T08:41:51;97575.59;;;26.36;39.88
26083;BME280;13848;49.018;12.078;2022-07-29T08:44:17;97577.38;;;26.58;39.93
26083;BME280;13848;49.018;12.078;2022-07-29T08:46:43;97569.19;;;26.78;40.16
26083;BME280;13848;49.018;12.078;2022-07-29T08:49:11;97580.25;;;26.78;39.10
26083;BME280;13848;49.018;12.078;2022-07-29T08:51:39;97579.31;;;26.74;39.34
26083;BME280;13848;49.018;12.078;2022-07-29T08:54:05;97574.00;;;26.99;38.51
26083;BME280;13848;49.018;12.078;2022-07-29T08:56:32;97574.97;;;27.03;39.20
26083;BME280;13848;49.018;12.078;2022-07-29T08:58:59;97581.47;;;27.07;38.56
26083;BME280;13848;49.018;12.078;2022-07-29T09:01:29;97574.66;;;26.96;39.17
26083;BME280;13848;49.018;12.078;2022-07-29T09:03:56;97562.13;;;26.98;39.11
26083;BME280;13848;49.018;12.078;2022-07-29T09:06:23;97561.44;;;27.01;38.88
26083;BME280;13848;49.018;12.078;2022-07-29T09:08:50;97568.00;;;26.97;38.21
26083;BME280;13848;49.018;12.078;2022-07-29T09:11:16;97573.47;;;27.05;38.77
26083;BME280;13848;49.018;12.078;2022-07-29T09:13:42;97569.75;;;27.10;38.57
26083;BME280;13848;49.018;12.078;2022-07-29T09:16:08;97565.59;;;27.25;39.20
26083;BME280;13848;49.018;12.078;2022-07-29T09:18:36;97565.38;;;27.39;38.21
26083;BME280;13848;49.018;12.078;2022-07-29T09:21:03;97562.13;;;27.37;37.93
26083;BME280;13848;49.018;12.078;2022-07-29T09:23:31;97564.88;;;27.37;38.17
26083;BME280;13848;49.018;12.078;2022-07-29T09:26:05;97558.13;;;27.55;38.37
26083;BME280;13848;49.018;12.078;2022-07-29T09:28:31;97566.81;;;27.74;38.04
26083;BME280;13848;49.018;12.078;2022-07-29T09:30:58;97572.34;;;27.74;38.17
26083;BME280;13848;49.018;12.078;2022-07-29T09:33:31;97564.56;;;27.89;37.85
26083;BME280;13848;49.018;12.078;2022-07-29T09:36:02;97553.84;;;28.08;37.06
26083;BME280;13848;49.018;12.078;2022-07-29T09:38:28;97560.75;;;28.02;37.37
26083;BME280;13848;49.018;12.078;2022-07-29T09:41:00;97563.38;;;27.77;37.45
26083;BME280;13848;49.018;12.078;2022-07-29T09:43:26;97559.31;;;27.75;37.12
26083;BME280;13848;49.018;12.078;2022-07-29T09:45:52;97549.66;;;28.02;38.03
26083;BME280;13848;49.018;12.078;2022-07-29T09:48:20;97552.47;;;28.14;37.18
26083;BME280;13848;49.018;12.078;2022-07-29T09:50:46;97548.09;;;28.13;37.24
26083;BME280;13848;49.018;12.078;2022-07-29T09:53:30;97554.03;;;28.03;36.86
26083;BME280;13848;49.018;12.078;2022-07-29T09:55:57;97549.50;;;28.19;37.13
26083;BME280;13848;49.018;12.078;2022-07-29T09:58:24;97549.50;;;28.19;37.51
26083;BME280;13848;49.018;12.078;2022-07-29T10:00:52;97549.78;;;28.05;36.45
26083;BME280;13848;49.018;12.078;2022-07-29T10:03:18;97548.56;;;27.94;37.57
26083;BME280;13848;49.018;12.078;2022-07-29T10:05:45;97545.28;;;28.01;37.68
26083;BME280;13848;49.018;12.078;2022-07-29T10:08:12;97543.00;;;28.15;36.67
26083;BME280;13848;49.018;12.078;2022-07-29T10:10:39;97542.81;;;28.20;36.71
26083;BME280;13848;49.018;12.078;2022-07-29T10:13:07;97546.88;;;28.02;36.98
26083;BME280;13848;49.018;12.078;2022-07-29T10:15:36;97537.34;;;27.91;36.83
26083;BME280;13848;49.018;12.078;2022-07-29T10:18:02;97536.25;;;27.83;37.32
26083;BME280;13848;49.018;12.078;2022-07-29T10:20:29;97522.34;;;27.92;37.58
26083;BME280;13848;49.018;12.078;2022-07-29T10:22:55;97525.31;;;27.87;36.67
26083;BME280;13848;49.018;12.078;2022-07-29T10:25:23;97521.78;;;28.19;37.52
26083;BME280;13848;49.018;12.078;2022-07-29T10:27:49;97524.34;;;28.24;36.83
26083;BME280;13848;49.018;12.078;2022-07-29T10:30:16;97529.19;;;28.27;36.76
26083;BME280;13848;49.018;12.078;2022-07-29T10:32:57;97534.31;;;27.83;36.45
26083;BME280;13848;49.018;12.078;2022-07-29T10:35:39;97521.38;;;28.08;37.82
26083;BME280;13848;49.018;12.078;2022-07-29T10:38:36;97520.28;;;28.22;37.04
26083;BME280;13848;49.018;12.078;2022-07-29T10:41:16;97515.09;;;28.53;36.95
26083;BME280;13848;49.018;12.078;2022-07-29T10:43:46;97509.66;;;28.69;36.56
26083;BME280;13848;49.018;12.078;2022-07-29T10:46:13;97524.25;;;28.66;35.72
26083;BME280;13848;49.018;12.078;2022-07-29T10:49:05;97521.06;;;28.43;35.69
26083;BME280;13848;49.018;12.078;2022-07-29T10:52:03;97513.16;;;28.66;36.14
26083;BME280;13848;49.018;12.078;2022-07-29T10:54:46;97516.28;;;28.31;35.67
26083;BME280;13848;49.018;12.078;2022-07-29T10:57:26;97503.88;;;28.50;35.58
26083;BME280;13848;49.018;12.078;2022-07-29T11:00:25;97511.63;;;28.69;36.27
26083;BME280;13848;49.018;12.078;2022-07-29T11:02:51;97503.66;;;28.67;35.37
26083;BME280;13848;49.018;12.078;2022-07-29T11:05:19;97514.09;;;28.70;35.17
26083;BME280;13848;49.018;12.078;2022-07-29T11:08:20;97503.44;;;28.60;35.36
26083;BME280;13848;49.018;12.078;2022-07-29T11:10:46;97497.19;;;28.63;35.88
26083;BME280;13848;49.018;12.078;2022-07-29T11:13:12;97506.22;;;28.72;35.37
26083;BME280;13848;49.018;12.078;2022-07-29T11:15:56;97488.19;;;28.78;36.50
26083;BME280;13848;49.018;12.078;2022-07-29T11:18:23;97489.81;;;28.79;35.57
26083;BME280;13848;49.018;12.078;2022-07-29T11:20:51;97491.97;;;28.61;35.56
26083;BME280;13848;49.018;12.078;2022-07-29T11:23:19;97507.00;;;28.27;35.93
26083;BME280;13848;49.018;12.078;2022-07-29T11:26:16;97497.13;;;28.39;35.90
26083;BME280;13848;49.018;12.078;2022-07-29T11:28:50;97489.06;;;28.46;36.64
26083;BME280;13848;49.018;12.078;2022-07-29T11:31:19;97483.06;;;28.44;35.90
26083;BME280;13848;49.018;12.078;2022-07-29T11:33:57;97476.13;;;28.50;36.56
26083;BME280;13848;49.018;12.078;2022-07-29T11:36:24;97479.13;;;28.57;36.38
26083;BME280;13848;49.018;12.078;2022-07-29T11:38:50;97480.22;;;28.31;36.46
26083;BME280;13848;49.018;12.078;2022-07-29T11:41:20;97485.38;;;28.42;36.30
26083;BME280;13848;49.018;12.078;2022-07-29T11:43:47;97492.91;;;28.53;35.57
26083;BME280;13848;49.018;12.078;2022-07-29T11:46:13;97489.19;;;28.49;36.24
26083;BME280;13848;49.018;12.078;2022-07-29T11:48:41;97486.78;;;28.60;35.23
26083;BME280;13848;49.018;12.078;2022-07-29T11:51:09;97502.47;;;28.44;35.07
26083;BME280;13848;49.018;12.078;2022-07-29T11:53:37;97494.88;;;27.99;36.29
26083;BME280;13848;49.018;12.078;2022-07-29T11:56:08;97495.28;;;27.89;36.78
26083;BME280;13848;49.018;12.078;2022-07-29T11:58:34;97479.63;;;27.93;36.26
26083;BME280;13848;49.018;12.078;2022-07-29T12:01:01;97490.59;;;27.89;37.25
26083;BME280;13848;49.018;12.078;2022-07-29T12:03:28;97479.88;;;28.00;37.23
26083;BME280;13848;49.018;12.078;2022-07-29T12:05:54;97474.84;;;28.14;37.19
26083;BME280;13848;49.018;12.078;2022-07-29T12:08:22;97486.03;;;28.39;36.81
26083;BME280;13848;49.018;12.078;2022-07-29T12:10:50;97483.28;;;28.51;37.05
26083;BME280;13848;49.018;12.078;2022-07-29T12:13:17;97486.97;;;28.43;36.93
26083;BME280;13848;49.018;12.078;2022-07-29T12:15:52;97487.69;;;28.52;36.23
26083;BME280;13848;49.018;12.078;2022-07-29T12:18:19;97491.16;;;28.49;36.67
26083;BME280;13848;49.018;12.078;2022-07-29T12:20:45;97489.53;;;28.48;36.80
26083;BME280;13848;49.018;12.078;2022-07-29T12:23:12;97485.81;;;28.44;36.29
26083;BME280;13848;49.018;12.078;2022-07-29T12:25:39;97482.97;;;28.19;36.70
26083;BME280;13848;49.018;12.078;2022-07-29T12:28:10;97480.41;;;28.14;36.74
26083;BME280;13848;49.018;12.078;2022-07-29T12:30:39;97487.31;;;28.08;37.09
26083;BME280;13848;49.018;12.078;2022-07-29T12:33:17;97485.69;;;28.07;36.87
26083;BME280;13848;49.018;12.078;2022-07-29T12:35:46;97481.75;;;28.08;37.20
26083;BME280;13848;49.018;12.078;2022-07-29T12:38:13;97484.56;;;28.20;36.76
26083;BME280;13848;49.018;12.078;2022-07-29T12:40:39;97484.53;;;28.08;37.49
26083;BME280;13848;49.018;12.078;2022-07-29T12:43:08;97465.38;;;28.15;37.11
26083;BME280;13848;49.018;12.078;2022-07-29T12:45:34;97458.91;;;28.23;37.46
26083;BME280;13848;49.018;12.078;2022-07-29T12:48:01;97460.72;;;28.40;37.03
26083;BME280;13848;49.018;12.078;2022-07-29T12:50:27;97460.88;;;28.44;36.86
26083;BME280;13848;49.018;12.078;2022-07-29T12:52:53;97458.31;;;28.39;36.94
26083;BME280;13848;49.018;12.078;2022-07-29T12:55:43;97450.94;;;28.43;36.64